sensor_id;sensor_type;location;lat;lon;timestamp;P1;durP1;ratioP1;P2;durP2;ratioP2
40951;SDS011;26682;51.660;19.338;2022-10-13T00:00:48;60.08;;;36.15;;
40951;SDS011;26682;51.660;19.338;2022-10-13T00:02:48;66.43;;;38.30;;
40951;SDS011;26682;51.660;19.338;2022-10-13T00:04:34;67.97;;;39.45;;
40951;SDS011;26682;51.660;19.338;2022-10-13T00:06:22;65.95;;;38.10;;
40951;SDS011;26682;51.660;19.338;2022-10-13T00:08:09;66.30;;;39.33;;
40951;SDS011;26682;51.660;19.338;2022-10-13T00:10:00;69.43;;;38.70;;
40951;SDS011;26682;51.660;19.338;2022-10-13T00:11:46;64.45;;;38.30;;
40951;SDS011;26682;51.660;19.338;2022-10-13T00:13:32;65.20;;;38.72;;
40951;SDS011;26682;51.660;19.338;2022-10-13T00:15:18;65.03;;;38.88;;
40951;SDS011;26682;51.660;19.338;2022-10-13T00:17:04;67.32;;;39.85;;
40951;SDS011;26682;51.660;19.338;2022-10-13T00:18:52;68.00;;;40.72;;
40951;SDS011;26682;51.660;19.338;2022-10-13T00:20:42;64.85;;;39.65;;
40951;SDS011;26682;51.660;19.338;2022-10-13T00:22:33;72.55;;;43.00;;
40951;SDS011;26682;51.660;19.338;2022-10-13T00:24:19;78.50;;;45.17;;
40951;SDS011;26682;51.660;19.338;2022-10-13T00:26:05;92.65;;;47.28;;
40951;SDS011;26682;51.660;19.338;2022-10-13T00:27:53;103.03;;;51.70;;
40951;SDS011;26682;51.660;19.338;2022-10-13T00:29:39;102.47;;;51.53;;
40951;SDS011;26682;51.660;19.338;2022-10-13T00:31:26;105.53;;;49.58;;
40951;SDS011;26682;51.660;19.338;2022-10-13T00:33:13;92.60;;;48.53;;
40951;SDS011;26682;51.660;19.338;2022-10-13T00:34:59;107.47;;;51.00;;
40951;SDS011;26682;51.660;19.338;2022-10-13T00:36:45;106.38;;;52.55;;
40951;SDS011;26682;51.660;19.338;2022-10-13T00:38:31;111.25;;;50.70;;
40951;SDS011;26682;51.660;19.338;2022-10-13T00:40:17;123.15;;;55.55;;
40951;SDS011;26682;51.660;19.338;2022-10-13T00:42:03;160.60;;;60.60;;
40951;SDS011;26682;51.660;19.338;2022-10-13T00:43:53;157.10;;;60.67;;
40951;SDS011;26682;51.660;19.338;2022-10-13T00:45:46;136.70;;;54.45;;
40951;SDS011;26682;51.660;19.338;2022-10-13T00:47:39;128.05;;;52.45;;
40951;SDS011;26682;51.660;19.338;2022-10-13T00:49:28;116.60;;;50.70;;
40951;SDS011;26682;51.660;19.338;2022-10-13T00:51:14;137.38;;;54.50;;
40951;SDS011;26682;51.660;19.338;2022-10-13T00:53:03;116.38;;;51.20;;
40951;SDS011;26682;51.660;19.338;2022-10-13T00:54:50;121.13;;;52.97;;
40951;SDS011;26682;51.660;19.338;2022-10-13T00:56:39;135.23;;;55.35;;
40951;SDS011;26682;51.660;19.338;2022-10-13T00:58:27;142.52;;;55.00;;
40951;SDS011;26682;51.660;19.338;2022-10-13T01:00:17;140.18;;;54.67;;
40951;SDS011;26682;51.660;19.338;2022-10-13T01:02:03;109.03;;;50.28;;
40951;SDS011;26682;51.660;19.338;2022-10-13T01:03:49;90.28;;;46.67;;
40951;SDS011;26682;51.660;19.338;2022-10-13T01:05:35;85.63;;;43.92;;
40951;SDS011;26682;51.660;19.338;2022-10-13T01:07:23;75.90;;;43.10;;
40951;SDS011;26682;51.660;19.338;2022-10-13T01:09:09;70.40;;;40.58;;
40951;SDS011;26682;51.660;19.338;2022-10-13T01:15:11;64.30;;;37.80;;
40951;SDS011;26682;51.660;19.338;2022-10-13T01:19:24;67.13;;;38.42;;
40951;SDS011;26682;51.660;19.338;2022-10-13T01:23:29;71.53;;;39.13;;
40951;SDS011;26682;51.660;19.338;2022-10-13T01:32:07;74.10;;;39.00;;
40951;SDS011;26682;51.660;19.338;2022-10-13T01:40:25;63.40;;;35.65;;
40951;SDS011;26682;51.660;19.338;2022-10-13T01:41:53;67.03;;;38.30;;
40951;SDS011;26682;51.660;19.338;2022-10-13T01:43:48;73.40;;;39.85;;
40951;SDS011;26682;51.660;19.338;2022-10-13T01:46:04;71.50;;;40.17;;
40951;SDS011;26682;51.660;19.338;2022-10-13T01:47:58;67.75;;;37.45;;
40951;SDS011;26682;51.660;19.338;2022-10-13T01:49:46;64.35;;;40.30;;
40951;SDS011;26682;51.660;19.338;2022-10-13T01:51:34;70.00;;;41.45;;
40951;SDS011;26682;51.660;19.338;2022-10-13T01:53:22;65.55;;;39.28;;
40951;SDS011;26682;51.660;19.338;2022-10-13T01:55:11;59.80;;;37.40;;
40951;SDS011;26682;51.660;19.338;2022-10-13T01:56:58;62.75;;;37.72;;
40951;SDS011;26682;51.660;19.338;2022-10-13T01:58:44;59.38;;;38.08;;
40951;SDS011;26682;51.660;19.338;2022-10-13T02:00:31;60.95;;;37.60;;
40951;SDS011;26682;51.660;19.338;2022-10-13T02:02:31;58.63;;;38.75;;
40951;SDS011;26682;51.660;19.338;2022-10-13T02:06:21;71.10;;;42.75;;
40951;SDS011;26682;51.660;19.338;2022-10-13T02:08:14;63.00;;;41.17;;
40951;SDS011;26682;51.660;19.338;2022-10-13T02:10:26;64.22;;;42.58;;
40951;SDS011;26682;51.660;19.338;2022-10-13T02:12:41;62.90;;;43.42;;
40951;SDS011;26682;51.660;19.338;2022-10-13T02:14:33;61.40;;;43.05;;
40951;SDS011;26682;51.660;19.338;2022-10-13T02:16:22;61.63;;;41.65;;
40951;SDS011;26682;51.660;19.338;2022-10-13T02:18:10;62.17;;;40.08;;
40951;SDS011;26682;51.660;19.338;2022-10-13T02:19:58;60.42;;;40.10;;
40951;SDS011;26682;51.660;19.338;2022-10-13T02:21:44;64.97;;;41.38;;
40951;SDS011;26682;51.660;19.338;2022-10-13T02:23:31;68.10;;;42.55;;
40951;SDS011;26682;51.660;19.338;2022-10-13T02:25:17;60.47;;;40.08;;
40951;SDS011;26682;51.660;19.338;2022-10-13T02:27:04;62.92;;;39.05;;
40951;SDS011;26682;51.660;19.338;2022-10-13T02:28:50;62.83;;;40.10;;
40951;SDS011;26682;51.660;19.338;2022-10-13T02:30:37;56.47;;;38.55;;
40951;SDS011;26682;51.660;19.338;2022-10-13T02:32:25;60.40;;;38.33;;
40951;SDS011;26682;51.660;19.338;2022-10-13T02:34:12;56.47;;;37.20;;
40951;SDS011;26682;51.660;19.338;2022-10-13T02:35:58;63.28;;;37.80;;
40951;SDS011;26682;51.660;19.338;2022-10-13T02:37:44;59.47;;;36.47;;
40951;SDS011;26682;51.660;19.338;2022-10-13T02:39:30;61.80;;;36.92;;
40951;SDS011;26682;51.660;19.338;2022-10-13T02:41:16;56.45;;;36.72;;
40951;SDS011;26682;51.660;19.338;2022-10-13T02:43:02;57.40;;;36.47;;
40951;SDS011;26682;51.660;19.338;2022-10-13T02:44:48;60.72;;;35.33;;
40951;SDS011;26682;51.660;19.338;2022-10-13T02:46:34;54.20;;;35.17;;
40951;SDS011;26682;51.660;19.338;2022-10-13T02:48:20;55.50;;;34.17;;
40951;SDS011;26682;51.660;19.338;2022-10-13T02:50:06;61.72;;;35.42;;
40951;SDS011;26682;51.660;19.338;2022-10-13T02:51:52;56.83;;;34.63;;
40951;SDS011;26682;51.660;19.338;2022-10-13T02:53:38;56.92;;;35.28;;
40951;SDS011;26682;51.660;19.338;2022-10-13T02:55:24;59.72;;;34.75;;
40951;SDS011;26682;51.660;19.338;2022-10-13T02:57:14;54.63;;;32.17;;
40951;SDS011;26682;51.660;19.338;2022-10-13T02:59:02;62.08;;;34.08;;
40951;SDS011;26682;51.660;19.338;2022-10-13T03:00:48;55.88;;;32.58;;
40951;SDS011;26682;51.660;19.338;2022-10-13T03:02:35;50.60;;;30.00;;
40951;SDS011;26682;51.660;19.338;2022-10-13T03:04:21;51.05;;;31.17;;
40951;SDS011;26682;51.660;19.338;2022-10-13T03:06:07;48.55;;;30.38;;
40951;SDS011;26682;51.660;19.338;2022-10-13T03:07:53;53.38;;;30.98;;
40951;SDS011;26682;51.660;19.338;2022-10-13T03:09:39;48.92;;;31.85;;
40951;SDS011;26682;51.660;19.338;2022-10-13T03:11:25;60.03;;;33.13;;
40951;SDS011;26682;51.660;19.338;2022-10-13T03:13:11;60.45;;;33.75;;
40951;SDS011;26682;51.660;19.338;2022-10-13T03:14:57;51.33;;;32.38;;
40951;SDS011;26682;51.660;19.338;2022-10-13T03:16:42;55.72;;;32.78;;
40951;SDS011;26682;51.660;19.338;2022-10-13T03:18:29;53.78;;;32.95;;
40951;SDS011;26682;51.660;19.338;2022-10-13T03:20:15;52.50;;;32.67;;
40951;SDS011;26682;51.660;19.338;2022-10-13T03:22:02;53.33;;;32.83;;
40951;SDS011;26682;51.660;19.338;2022-10-13T03:23:48;50.65;;;31.38;;
40951;SDS011;26682;51.660;19.338;2022-10-13T03:25:34;45.95;;;29.75;;
40951;SDS011;26682;51.660;19.338;2022-10-13T03:27:20;55.30;;;32.28;;
40951;SDS011;26682;51.660;19.338;2022-10-13T03:29:06;51.72;;;30.35;;
40951;SDS011;26682;51.660;19.338;2022-10-13T03:30:59;46.22;;;29.25;;
40951;SDS011;26682;51.660;19.338;2022-10-13T03:32:46;47.50;;;30.08;;
40951;SDS011;26682;51.660;19.338;2022-10-13T03:34:32;46.22;;;30.02;;
40951;SDS011;26682;51.660;19.338;2022-10-13T03:36:18;54.03;;;30.48;;
40951;SDS011;26682;51.660;19.338;2022-10-13T03:38:07;56.22;;;32.03;;
40951;SDS011;26682;51.660;19.338;2022-10-13T03:39:53;51.83;;;31.50;;
40951;SDS011;26682;51.660;19.338;2022-10-13T03:41:39;56.88;;;30.83;;
40951;SDS011;26682;51.660;19.338;2022-10-13T03:43:25;61.40;;;30.67;;
40951;SDS011;26682;51.660;19.338;2022-10-13T03:45:11;47.78;;;30.63;;
40951;SDS011;26682;51.660;19.338;2022-10-13T03:46:57;56.10;;;31.75;;
40951;SDS011;26682;51.660;19.338;2022-10-13T03:48:43;51.53;;;32.05;;
40951;SDS011;26682;51.660;19.338;2022-10-13T03:50:29;53.50;;;31.98;;
40951;SDS011;26682;51.660;19.338;2022-10-13T03:52:16;48.60;;;29.45;;
40951;SDS011;26682;51.660;19.338;2022-10-13T03:54:01;50.78;;;29.15;;
40951;SDS011;26682;51.660;19.338;2022-10-13T03:55:48;51.67;;;29.48;;
40951;SDS011;26682;51.660;19.338;2022-10-13T03:57:39;42.58;;;26.73;;
40951;SDS011;26682;51.660;19.338;2022-10-13T03:59:25;43.78;;;27.00;;
40951;SDS011;26682;51.660;19.338;2022-10-13T04:01:13;46.17;;;27.20;;
40951;SDS011;26682;51.660;19.338;2022-10-13T04:03:02;48.25;;;27.25;;
40951;SDS011;26682;51.660;19.338;2022-10-13T04:04:48;50.20;;;29.13;;
40951;SDS011;26682;51.660;19.338;2022-10-13T04:06:35;45.97;;;26.88;;
40951;SDS011;26682;51.660;19.338;2022-10-13T04:08:21;46.65;;;27.75;;
40951;SDS011;26682;51.660;19.338;2022-10-13T04:10:07;46.28;;;27.63;;
40951;SDS011;26682;51.660;19.338;2022-10-13T04:11:53;46.28;;;28.45;;
40951;SDS011;26682;51.660;19.338;2022-10-13T04:13:40;48.08;;;26.40;;
40951;SDS011;26682;51.660;19.338;2022-10-13T04:15:27;42.88;;;27.02;;
40951;SDS011;26682;51.660;19.338;2022-10-13T04:17:14;43.90;;;26.90;;
40951;SDS011;26682;51.660;19.338;2022-10-13T04:19:01;50.05;;;30.48;;
40951;SDS011;26682;51.660;19.338;2022-10-13T04:20:49;59.90;;;35.58;;
40951;SDS011;26682;51.660;19.338;2022-10-13T04:22:35;68.38;;;40.90;;
40951;SDS011;26682;51.660;19.338;2022-10-13T04:24:21;69.25;;;39.03;;
40951;SDS011;26682;51.660;19.338;2022-10-13T04:26:13;64.87;;;39.37;;
40951;SDS011;26682;51.660;19.338;2022-10-13T04:28:01;67.22;;;39.47;;
40951;SDS011;26682;51.660;19.338;2022-10-13T04:29:55;60.47;;;37.50;;
40951;SDS011;26682;51.660;19.338;2022-10-13T04:31:41;61.05;;;36.08;;
40951;SDS011;26682;51.660;19.338;2022-10-13T04:33:28;60.72;;;34.45;;
40951;SDS011;26682;51.660;19.338;2022-10-13T04:35:14;57.95;;;35.33;;
40951;SDS011;26682;51.660;19.338;2022-10-13T04:37:00;60.85;;;34.88;;
40951;SDS011;26682;51.660;19.338;2022-10-13T04:38:46;60.00;;;35.28;;
40951;SDS011;26682;51.660;19.338;2022-10-13T04:40:32;64.40;;;35.05;;
40951;SDS011;26682;51.660;19.338;2022-10-13T04:42:19;66.90;;;35.75;;
40951;SDS011;26682;51.660;19.338;2022-10-13T04:44:05;57.03;;;36.00;;
40951;SDS011;26682;51.660;19.338;2022-10-13T04:45:51;74.13;;;41.72;;
40951;SDS011;26682;51.660;19.338;2022-10-13T04:47:37;74.75;;;40.22;;
40951;SDS011;26682;51.660;19.338;2022-10-13T04:49:23;69.50;;;38.93;;
40951;SDS011;26682;51.660;19.338;2022-10-13T04:51:13;70.85;;;39.65;;
40951;SDS011;26682;51.660;19.338;2022-10-13T04:53:01;77.97;;;40.85;;
40951;SDS011;26682;51.660;19.338;2022-10-13T04:54:46;87.47;;;40.45;;
40951;SDS011;26682;51.660;19.338;2022-10-13T04:56:33;72.80;;;39.13;;
40951;SDS011;26682;51.660;19.338;2022-10-13T04:58:20;70.85;;;38.45;;
40951;SDS011;26682;51.660;19.338;2022-10-13T05:00:06;72.18;;;38.47;;
40951;SDS011;26682;51.660;19.338;2022-10-13T05:01:53;80.57;;;39.15;;
40951;SDS011;26682;51.660;19.338;2022-10-13T05:03:39;75.65;;;39.75;;
40951;SDS011;26682;51.660;19.338;2022-10-13T05:05:25;71.60;;;37.75;;
40951;SDS011;26682;51.660;19.338;2022-10-13T05:07:11;66.50;;;37.28;;
40951;SDS011;26682;51.660;19.338;2022-10-13T05:08:58;76.60;;;38.28;;
40951;SDS011;26682;51.660;19.338;2022-10-13T05:12:46;65.55;;;36.72;;
40951;SDS011;26682;51.660;19.338;2022-10-13T05:14:33;62.75;;;37.17;;
40951;SDS011;26682;51.660;19.338;2022-10-13T05:16:19;78.57;;;39.95;;
40951;SDS011;26682;51.660;19.338;2022-10-13T05:18:07;103.93;;;45.15;;
40951;SDS011;26682;51.660;19.338;2022-10-13T05:19:53;88.57;;;45.13;;
40951;SDS011;26682;51.660;19.338;2022-10-13T05:21:39;79.65;;;43.05;;
40951;SDS011;26682;51.660;19.338;2022-10-13T05:23:25;82.68;;;42.58;;
40951;SDS011;26682;51.660;19.338;2022-10-13T05:25:11;79.38;;;43.50;;
40951;SDS011;26682;51.660;19.338;2022-10-13T05:26:57;87.38;;;43.13;;
40951;SDS011;26682;51.660;19.338;2022-10-13T05:28:43;74.85;;;43.38;;
40951;SDS011;26682;51.660;19.338;2022-10-13T05:30:29;72.75;;;41.50;;
40951;SDS011;26682;51.660;19.338;2022-10-13T05:32:19;74.22;;;42.47;;
40951;SDS011;26682;51.660;19.338;2022-10-13T05:34:05;72.10;;;42.35;;
40951;SDS011;26682;51.660;19.338;2022-10-13T05:35:51;72.10;;;43.15;;
40951;SDS011;26682;51.660;19.338;2022-10-13T05:37:37;69.93;;;41.63;;
40951;SDS011;26682;51.660;19.338;2022-10-13T05:39:23;70.05;;;41.45;;
40951;SDS011;26682;51.660;19.338;2022-10-13T05:41:12;76.60;;;40.92;;
40951;SDS011;26682;51.660;19.338;2022-10-13T05:42:58;71.13;;;41.67;;
40951;SDS011;26682;51.660;19.338;2022-10-13T05:44:45;77.00;;;40.45;;
40951;SDS011;26682;51.660;19.338;2022-10-13T05:46:31;74.70;;;41.45;;
40951;SDS011;26682;51.660;19.338;2022-10-13T05:48:16;70.55;;;39.15;;
40951;SDS011;26682;51.660;19.338;2022-10-13T05:50:03;63.75;;;37.15;;
40951;SDS011;26682;51.660;19.338;2022-10-13T05:51:49;64.28;;;36.53;;
40951;SDS011;26682;51.660;19.338;2022-10-13T05:53:44;63.70;;;35.88;;
40951;SDS011;26682;51.660;19.338;2022-10-13T05:55:35;71.22;;;34.25;;
40951;SDS011;26682;51.660;19.338;2022-10-13T05:57:23;59.90;;;30.20;;
40951;SDS011;26682;51.660;19.338;2022-10-13T05:59:22;55.83;;;29.13;;
40951;SDS011;26682;51.660;19.338;2022-10-13T06:01:12;55.70;;;30.40;;
40951;SDS011;26682;51.660;19.338;2022-10-13T06:03:23;58.70;;;30.63;;
40951;SDS011;26682;51.660;19.338;2022-10-13T06:05:10;60.35;;;29.48;;
40951;SDS011;26682;51.660;19.338;2022-10-13T06:06:59;45.55;;;26.88;;
40951;SDS011;26682;51.660;19.338;2022-10-13T06:08:45;45.85;;;25.88;;
40951;SDS011;26682;51.660;19.338;2022-10-13T06:10:30;44.22;;;24.05;;
40951;SDS011;26682;51.660;19.338;2022-10-13T06:12:16;42.90;;;21.63;;
40951;SDS011;26682;51.660;19.338;2022-10-13T06:14:03;34.58;;;19.42;;
40951;SDS011;26682;51.660;19.338;2022-10-13T06:15:49;41.72;;;20.45;;
40951;SDS011;26682;51.660;19.338;2022-10-13T06:17:35;39.47;;;20.20;;
40951;SDS011;26682;51.660;19.338;2022-10-13T06:19:22;41.30;;;21.42;;
40951;SDS011;26682;51.660;19.338;2022-10-13T06:21:08;32.38;;;19.17;;
40951;SDS011;26682;51.660;19.338;2022-10-13T06:22:55;39.03;;;20.40;;
40951;SDS011;26682;51.660;19.338;2022-10-13T06:24:41;41.63;;;22.40;;
40951;SDS011;26682;51.660;19.338;2022-10-13T06:26:27;37.58;;;19.63;;
40951;SDS011;26682;51.660;19.338;2022-10-13T06:28:13;30.48;;;17.88;;
40951;SDS011;26682;51.660;19.338;2022-10-13T06:30:00;32.92;;;18.23;;
40951;SDS011;26682;51.660;19.338;2022-10-13T06:31:46;41.55;;;19.67;;
40951;SDS011;26682;51.660;19.338;2022-10-13T06:33:32;41.05;;;20.50;;
40951;SDS011;26682;51.660;19.338;2022-10-13T06:35:18;38.97;;;19.58;;
40951;SDS011;26682;51.660;19.338;2022-10-13T06:37:05;36.35;;;19.52;;
40951;SDS011;26682;51.660;19.338;2022-10-13T06:38:51;35.35;;;19.40;;
40951;SDS011;26682;51.660;19.338;2022-10-13T06:40:39;44.88;;;19.92;;
40951;SDS011;26682;51.660;19.338;2022-10-13T06:42:25;43.03;;;20.55;;
40951;SDS011;26682;51.660;19.338;2022-10-13T06:44:35;33.45;;;18.42;;
40951;SDS011;26682;51.660;19.338;2022-10-13T06:46:21;35.08;;;19.63;;
40951;SDS011;26682;51.660;19.338;2022-10-13T06:48:07;35.33;;;18.48;;
40951;SDS011;26682;51.660;19.338;2022-10-13T06:49:53;32.03;;;18.20;;
40951;SDS011;26682;51.660;19.338;2022-10-13T06:51:39;34.63;;;18.30;;
40951;SDS011;26682;51.660;19.338;2022-10-13T06:53:25;36.75;;;18.83;;
40951;SDS011;26682;51.660;19.338;2022-10-13T06:55:11;40.45;;;19.73;;
40951;SDS011;26682;51.660;19.338;2022-10-13T06:56:57;34.67;;;19.15;;
40951;SDS011;26682;51.660;19.338;2022-10-13T06:58:43;37.13;;;19.48;;
40951;SDS011;26682;51.660;19.338;2022-10-13T07:00:29;36.20;;;18.65;;
40951;SDS011;26682;51.660;19.338;2022-10-13T07:02:15;35.53;;;18.00;;
40951;SDS011;26682;51.660;19.338;2022-10-13T07:04:00;30.90;;;18.48;;
40951;SDS011;26682;51.660;19.338;2022-10-13T07:05:46;26.60;;;17.27;;
40951;SDS011;26682;51.660;19.338;2022-10-13T07:07:32;34.63;;;18.17;;
40951;SDS011;26682;51.660;19.338;2022-10-13T07:09:18;34.85;;;18.17;;
40951;SDS011;26682;51.660;19.338;2022-10-13T07:11:06;37.85;;;18.48;;
40951;SDS011;26682;51.660;19.338;2022-10-13T07:12:59;28.02;;;16.77;;
40951;SDS011;26682;51.660;19.338;2022-10-13T07:14:45;32.03;;;16.88;;
40951;SDS011;26682;51.660;19.338;2022-10-13T07:16:32;31.30;;;15.50;;
40951;SDS011;26682;51.660;19.338;2022-10-13T07:18:18;28.00;;;15.77;;
40951;SDS011;26682;51.660;19.338;2022-10-13T07:20:04;29.92;;;15.25;;
40951;SDS011;26682;51.660;19.338;2022-10-13T07:21:51;28.10;;;15.73;;
40951;SDS011;26682;51.660;19.338;2022-10-13T07:23:38;25.17;;;13.90;;
40951;SDS011;26682;51.660;19.338;2022-10-13T07:25:24;23.25;;;13.85;;
40951;SDS011;26682;51.660;19.338;2022-10-13T07:27:10;28.33;;;14.45;;
40951;SDS011;26682;51.660;19.338;2022-10-13T07:28:56;23.08;;;13.57;;
40951;SDS011;26682;51.660;19.338;2022-10-13T07:30:42;21.98;;;12.90;;
40951;SDS011;26682;51.660;19.338;2022-10-13T07:32:30;23.42;;;12.20;;
40951;SDS011;26682;51.660;19.338;2022-10-13T07:34:16;23.42;;;11.32;;
40951;SDS011;26682;51.660;19.338;2022-10-13T07:36:02;24.35;;;11.10;;
40951;SDS011;26682;51.660;19.338;2022-10-13T07:37:50;18.83;;;11.50;;
40951;SDS011;26682;51.660;19.338;2022-10-13T07:39:37;29.38;;;12.35;;
40951;SDS011;26682;51.660;19.338;2022-10-13T07:41:23;25.38;;;11.70;;
40951;SDS011;26682;51.660;19.338;2022-10-13T07:43:12;24.70;;;10.68;;
40951;SDS011;26682;51.660;19.338;2022-10-13T07:44:58;19.80;;;10.60;;
40951;SDS011;26682;51.660;19.338;2022-10-13T07:46:46;18.10;;;8.00;;
40951;SDS011;26682;51.660;19.338;2022-10-13T07:48:33;16.98;;;7.78;;
40951;SDS011;26682;51.660;19.338;2022-10-13T07:50:20;15.60;;;6.88;;
40951;SDS011;26682;51.660;19.338;2022-10-13T07:52:07;9.82;;;5.95;;
40951;SDS011;26682;51.660;19.338;2022-10-13T07:53:53;14.85;;;6.97;;
40951;SDS011;26682;51.660;19.338;2022-10-13T07:55:39;12.38;;;6.18;;
40951;SDS011;26682;51.660;19.338;2022-10-13T07:57:25;11.18;;;6.25;;
40951;SDS011;26682;51.660;19.338;2022-10-13T07:59:12;14.97;;;6.83;;
40951;SDS011;26682;51.660;19.338;2022-10-13T08:00:58;11.13;;;6.40;;
40951;SDS011;26682;51.660;19.338;2022-10-13T08:02:48;16.17;;;6.60;;
40951;SDS011;26682;51.660;19.338;2022-10-13T08:04:35;14.57;;;6.07;;
40951;SDS011;26682;51.660;19.338;2022-10-13T08:06:22;13.90;;;6.22;;
40951;SDS011;26682;51.660;19.338;2022-10-13T08:08:12;14.05;;;6.28;;
40951;SDS011;26682;51.660;19.338;2022-10-13T08:09:58;11.70;;;5.80;;
40951;SDS011;26682;51.660;19.338;2022-10-13T08:11:44;13.50;;;5.75;;
40951;SDS011;26682;51.660;19.338;2022-10-13T08:13:30;12.80;;;5.90;;
40951;SDS011;26682;51.660;19.338;2022-10-13T08:15:24;14.95;;;5.68;;
40951;SDS011;26682;51.660;19.338;2022-10-13T08:17:10;16.10;;;5.78;;
40951;SDS011;26682;51.660;19.338;2022-10-13T08:18:57;11.70;;;5.70;;
40951;SDS011;26682;51.660;19.338;2022-10-13T08:20:43;14.68;;;6.68;;
40951;SDS011;26682;51.660;19.338;2022-10-13T08:22:30;13.23;;;6.60;;
40951;SDS011;26682;51.660;19.338;2022-10-13T08:24:18;11.77;;;6.05;;
40951;SDS011;26682;51.660;19.338;2022-10-13T08:26:11;11.68;;;5.53;;
40951;SDS011;26682;51.660;19.338;2022-10-13T08:28:04;11.73;;;5.13;;
40951;SDS011;26682;51.660;19.338;2022-10-13T08:29:51;13.55;;;5.43;;
40951;SDS011;26682;51.660;19.338;2022-10-13T08:31:40;11.90;;;5.80;;
40951;SDS011;26682;51.660;19.338;2022-10-13T08:33:26;14.35;;;5.75;;
40951;SDS011;26682;51.660;19.338;2022-10-13T08:35:12;13.63;;;5.88;;
40951;SDS011;26682;51.660;19.338;2022-10-13T08:36:58;15.88;;;6.10;;
40951;SDS011;26682;51.660;19.338;2022-10-13T08:38:44;16.85;;;6.28;;
40951;SDS011;26682;51.660;19.338;2022-10-13T08:40:30;15.23;;;5.85;;
40951;SDS011;26682;51.660;19.338;2022-10-13T08:42:18;10.07;;;5.00;;
40951;SDS011;26682;51.660;19.338;2022-10-13T08:44:09;16.00;;;5.35;;
40951;SDS011;26682;51.660;19.338;2022-10-13T08:46:18;14.02;;;5.68;;
40951;SDS011;26682;51.660;19.338;2022-10-13T08:48:19;16.25;;;5.75;;
40951;SDS011;26682;51.660;19.338;2022-10-13T08:50:15;12.23;;;6.18;;
40951;SDS011;26682;51.660;19.338;2022-10-13T08:52:04;13.85;;;5.65;;
40951;SDS011;26682;51.660;19.338;2022-10-13T08:53:50;10.50;;;4.53;;
40951;SDS011;26682;51.660;19.338;2022-10-13T08:55:40;10.77;;;4.75;;
40951;SDS011;26682;51.660;19.338;2022-10-13T08:57:26;10.55;;;4.18;;
40951;SDS011;26682;51.660;19.338;2022-10-13T08:59:13;9.63;;;4.40;;
40951;SDS011;26682;51.660;19.338;2022-10-13T09:02:53;11.45;;;4.63;;
40951;SDS011;26682;51.660;19.338;2022-10-13T09:04:51;11.68;;;4.65;;
40951;SDS011;26682;51.660;19.338;2022-10-13T09:06:39;12.90;;;4.55;;
40951;SDS011;26682;51.660;19.338;2022-10-13T09:08:35;11.25;;;4.32;;
40951;SDS011;26682;51.660;19.338;2022-10-13T09:10:25;9.82;;;4.60;;
40951;SDS011;26682;51.660;19.338;2022-10-13T09:12:11;10.70;;;4.50;;
40951;SDS011;26682;51.660;19.338;2022-10-13T09:13:58;12.20;;;4.20;;
40951;SDS011;26682;51.660;19.338;2022-10-13T09:15:46;8.88;;;4.90;;
40951;SDS011;26682;51.660;19.338;2022-10-13T09:17:38;12.63;;;4.45;;
40951;SDS011;26682;51.660;19.338;2022-10-13T09:21:19;13.23;;;4.60;;
40951;SDS011;26682;51.660;19.338;2022-10-13T09:23:19;11.30;;;5.15;;
40951;SDS011;26682;51.660;19.338;2022-10-13T09:27:02;9.93;;;4.78;;
40951;SDS011;26682;51.660;19.338;2022-10-13T09:28:53;8.80;;;4.32;;
40951;SDS011;26682;51.660;19.338;2022-10-13T09:30:43;9.75;;;4.32;;
40951;SDS011;26682;51.660;19.338;2022-10-13T09:32:33;7.68;;;4.40;;
40951;SDS011;26682;51.660;19.338;2022-10-13T09:36:13;9.82;;;4.15;;
40951;SDS011;26682;51.660;19.338;2022-10-13T09:38:04;7.03;;;4.00;;
40951;SDS011;26682;51.660;19.338;2022-10-13T09:40:00;9.90;;;4.00;;
40951;SDS011;26682;51.660;19.338;2022-10-13T09:42:08;9.23;;;4.22;;
40951;SDS011;26682;51.660;19.338;2022-10-13T09:44:14;11.00;;;4.72;;
40951;SDS011;26682;51.660;19.338;2022-10-13T09:46:03;9.40;;;4.50;;
40951;SDS011;26682;51.660;19.338;2022-10-13T09:48:32;7.57;;;4.57;;
40951;SDS011;26682;51.660;19.338;2022-10-13T09:50:27;8.70;;;4.65;;
40951;SDS011;26682;51.660;19.338;2022-10-13T09:52:18;11.27;;;5.18;;
40951;SDS011;26682;51.660;19.338;2022-10-13T09:54:21;12.65;;;4.55;;
40951;SDS011;26682;51.660;19.338;2022-10-13T09:56:28;13.18;;;4.07;;
40951;SDS011;26682;51.660;19.338;2022-10-13T09:58:31;7.43;;;4.05;;
40951;SDS011;26682;51.660;19.338;2022-10-13T10:00:21;9.60;;;4.18;;
40951;SDS011;26682;51.660;19.338;2022-10-13T10:02:14;8.23;;;4.00;;
40951;SDS011;26682;51.660;19.338;2022-10-13T10:04:33;10.82;;;3.92;;
40951;SDS011;26682;51.660;19.338;2022-10-13T10:06:22;8.10;;;4.15;;
40951;SDS011;26682;51.660;19.338;2022-10-13T10:10:45;9.43;;;4.43;;
40951;SDS011;26682;51.660;19.338;2022-10-13T10:12:33;9.05;;;4.65;;
40951;SDS011;26682;51.660;19.338;2022-10-13T10:14:26;9.85;;;4.20;;
40951;SDS011;26682;51.660;19.338;2022-10-13T10:18:04;10.85;;;4.88;;
40951;SDS011;26682;51.660;19.338;2022-10-13T10:20:02;11.77;;;4.57;;
40951;SDS011;26682;51.660;19.338;2022-10-13T10:24:15;7.95;;;4.35;;
40951;SDS011;26682;51.660;19.338;2022-10-13T10:26:16;9.00;;;4.57;;
40951;SDS011;26682;51.660;19.338;2022-10-13T10:30:19;11.77;;;5.20;;
40951;SDS011;26682;51.660;19.338;2022-10-13T10:41:15;13.32;;;5.07;;
40951;SDS011;26682;51.660;19.338;2022-10-13T10:45:30;8.23;;;3.78;;
40951;SDS011;26682;51.660;19.338;2022-10-13T10:47:24;9.13;;;4.35;;
40951;SDS011;26682;51.660;19.338;2022-10-13T10:49:19;9.02;;;4.18;;
40951;SDS011;26682;51.660;19.338;2022-10-13T10:51:12;11.02;;;4.03;;
40951;SDS011;26682;51.660;19.338;2022-10-13T10:53:06;10.07;;;5.05;;
40951;SDS011;26682;51.660;19.338;2022-10-13T11:03:20;9.73;;;4.20;;
40951;SDS011;26682;51.660;19.338;2022-10-13T11:13:16;10.00;;;4.40;;
40951;SDS011;26682;51.660;19.338;2022-10-13T11:15:10;7.90;;;4.57;;
40951;SDS011;26682;51.660;19.338;2022-10-13T11:17:17;11.40;;;4.68;;
40951;SDS011;26682;51.660;19.338;2022-10-13T11:19:30;10.27;;;4.80;;
40951;SDS011;26682;51.660;19.338;2022-10-13T11:21:18;8.50;;;4.43;;
40951;SDS011;26682;51.660;19.338;2022-10-13T11:26:49;8.48;;;4.28;;
40951;SDS011;26682;51.660;19.338;2022-10-13T11:33:05;11.32;;;4.80;;
40951;SDS011;26682;51.660;19.338;2022-10-13T11:35:25;12.07;;;4.47;;
40951;SDS011;26682;51.660;19.338;2022-10-13T11:37:15;10.65;;;4.45;;
40951;SDS011;26682;51.660;19.338;2022-10-13T11:41:15;8.05;;;4.20;;
40951;SDS011;26682;51.660;19.338;2022-10-13T11:57:24;7.95;;;4.35;;
40951;SDS011;26682;51.660;19.338;2022-10-13T12:01:16;9.57;;;4.57;;
40951;SDS011;26682;51.660;19.338;2022-10-13T12:03:03;8.88;;;4.75;;
40951;SDS011;26682;51.660;19.338;2022-10-13T12:07:13;15.88;;;4.82;;
40951;SDS011;26682;51.660;19.338;2022-10-13T12:09:04;11.15;;;4.57;;
40951;SDS011;26682;51.660;19.338;2022-10-13T12:11:01;9.48;;;4.93;;